Molus, Kentucky
Current Conditions -  °F | °C
As of 11:15 PM on Wednesday 28 Jan 2015 (Local Time) from KI35 Reporting Station
Clear Clear  
Wind Chill: 30°   Ceiling: Unl
Heat Index: 34°   Visibility: 10mi
Dew Point: 19°   Wind: 5mph
Humidity: 56%   Direction: 80°E
Pressure: 30.21"   Gusts: NA
Location:  36.8738°N, 83.4431°W
Report Text: KI35 290415Z AUTO 08004KT 10SM CLR 01/M07 A3021 RMK AO1
Loading
Personal Weather Stations






























Interactive Weather Map New forecast layout! Learn more

10-Day Weather Forecast

Advertisements
Track Severe Weather on mobile